Time;durP1;ratioP1;P1;durP2;ratioP2;P2;SDS_P1;SDS_P2;PMS_P1;PMS_P2;Temp;Humidity;BMP_temperature;BMP_pressure;BME280_temperature;BME280_humidity;BME280_pressure;Samples;Min_cycle;Max_cycle;Signal;HPM_P1;HPM_P2
2021/11/08 00:01:00;;;;;;;32.95;16.83;;;;;;;18.02;76.14;101328.69;5117724;27;20452;-82
2021/11/08 00:03:33;;;;;;;30.92;16.63;;;;;;;18.06;76.12;101326.88;5135461;27;20409;-82
2021/11/08 00:06:04;;;;;;;31.48;15.82;;;;;;;18.00;75.97;101329.59;5117483;27;20405;-83
2021/11/08 00:08:32;;;;;;;26.45;16.48;;;;;;;17.79;76.24;101330.59;5135784;27;20039;-82
2021/11/08 00:11:00;;;;;;;26.17;14.85;;;;;;;17.61;76.75;101333.34;5136071;27;20123;-82
2021/11/08 00:13:28;;;;;;;32.70;16.02;;;;;;;17.72;76.74;101329.72;5117683;27;20444;-82
2021/11/08 00:16:07;;;;;;;29.02;15.95;;;;;;;17.84;76.38;101324.34;5117436;27;20043;-81
2021/11/08 00:18:40;;;;;;;28.02;15.88;;;;;;;17.87;75.99;101329.66;5117725;27;20502;-81
2021/11/08 00:21:08;;;;;;;32.13;19.15;;;;;;;17.87;75.83;101323.44;5117232;27;20440;-81
2021/11/08 00:23:37;;;;;;;30.80;16.90;;;;;;;17.93;75.83;101334.06;5135395;27;20043;-81
2021/11/08 00:26:05;;;;;;;30.83;15.98;;;;;;;17.89;75.63;101327.88;5135081;27;20417;-81
2021/11/08 00:28:32;;;;;;;29.88;14.70;;;;;;;17.78;76.02;101328.84;5135409;27;20114;-81
2021/11/08 00:31:02;;;;;;;28.52;17.67;;;;;;;17.83;76.18;101327.03;5135489;27;20118;-81
2021/11/08 00:33:30;;;;;;;35.15;16.10;;;;;;;17.85;76.26;101328.78;5117444;27;20128;-81
2021/11/08 00:36:01;;;;;;;28.42;16.20;;;;;;;17.79;76.32;101333.25;5117320;27;20047;-81
2021/11/08 00:38:31;;;;;;;32.28;16.50;;;;;;;17.78;76.47;101331.50;5135549;27;20468;-81
2021/11/08 00:41:00;;;;;;;31.15;19.35;;;;;;;17.87;76.52;101336.78;5135317;27;20043;-81
2021/11/08 00:43:28;;;;;;;26.30;15.93;;;;;;;17.94;76.33;101335.84;5134989;27;20043;-81
2021/11/08 00:45:56;;;;;;;27.40;17.30;;;;;;;17.95;76.03;101329.63;5134848;27;20039;-81
2021/11/08 00:48:30;;;;;;;31.20;18.00;;;;;;;17.92;75.76;101330.50;5117195;27;20444;-81
2021/11/08 00:50:58;;;;;;;33.80;15.98;;;;;;;17.92;75.70;101333.19;5113135;28;20586;-81
2021/11/08 00:53:26;;;;;;;31.25;18.13;;;;;;;17.82;75.70;101331.47;5096564;28;20040;-81
2021/11/08 00:55:55;;;;;;;27.05;15.05;;;;;;;17.77;75.95;101335.06;5114425;28;20520;-81
2021/11/08 00:58:27;;;;;;;30.13;15.30;;;;;;;17.88;75.85;101330.56;5113861;28;20036;-81
2021/11/08 01:00:58;;;;;;;27.70;15.45;;;;;;;17.96;75.52;101322.50;5113881;28;20414;-81
2021/11/08 01:03:27;;;;;;;25.92;15.10;;;;;;;18.03;75.13;101321.56;5113973;28;20490;-81
2021/11/08 01:05:55;;;;;;;27.05;15.35;;;;;;;17.97;75.14;101321.59;5113743;28;20040;-81
2021/11/08 01:08:23;;;;;;;33.40;15.68;;;;;;;17.96;74.98;101310.03;5113775;28;20433;-80
2021/11/08 01:10:51;;;;;;;29.83;15.93;;;;;;;17.97;74.78;101303.78;5096142;28;20044;-80
2021/11/08 01:13:19;;;;;;;31.25;16.02;;;;;;;17.94;74.84;101303.78;5112975;28;20047;-81
2021/11/08 01:15:47;;;;;;;26.63;15.57;;;;;;;17.92;74.93;101310.94;5113457;28;20100;-81
2021/11/08 01:18:14;;;;;;;28.52;15.63;;;;;;;17.88;74.88;101298.50;5113418;28;20050;-78
2021/11/08 01:21:06;;;;;;;29.48;16.27;;;;;;;17.77;75.21;101295.91;5098595;28;20122;-81
2021/11/08 01:23:34;;;;;;;28.70;16.02;;;;;;;17.79;75.40;101287.84;5095822;28;20040;-81
2021/11/08 01:26:06;;;;;;;27.23;15.52;;;;;;;17.77;75.19;101282.53;5113797;28;20544;-80
2021/11/08 01:28:36;;;;;;;30.23;17.45;;;;;;;17.69;75.42;101278.13;5113457;28;20048;-81
2021/11/08 01:31:04;;;;;;;31.50;15.50;;;;;;;17.69;75.35;101287.03;5113947;28;20039;-81
2021/11/08 01:33:32;;;;;;;29.65;15.55;;;;;;;17.48;75.44;101287.09;5113869;28;20051;-81
2021/11/08 01:36:11;;;;;;;27.13;15.32;;;;;;;17.26;75.71;101294.31;5113716;28;20122;-81
2021/11/08 01:38:43;;;;;;;30.73;16.23;;;;;;;17.27;75.90;101285.38;5113792;28;20066;-82
2021/11/08 01:41:13;;;;;;;33.90;18.70;;;;;;;17.43;75.44;101283.56;5115409;27;20043;-80
2021/11/08 01:43:42;;;;;;;32.55;18.83;;;;;;;17.41;74.94;101278.22;5133810;27;20054;-80
2021/11/08 01:46:11;;;;;;;34.90;19.08;;;;;;;17.29;75.00;101282.72;5133984;27;20382;-74
2021/11/08 01:48:39;;;;;;;35.03;17.10;;;;;;;17.06;75.13;101282.81;5134279;27;20100;-80
2021/11/08 01:51:07;;;;;;;27.85;17.52;;;;;;;16.89;75.43;101277.50;5133464;27;20043;-79
2021/11/08 01:53:36;;;;;;;27.67;16.25;;;;;;;16.88;75.73;101282.81;5133343;27;20096;-80
2021/11/08 01:56:05;;;;;;;34.90;17.58;;;;;;;16.96;75.62;101281.91;5114925;27;20039;-79
2021/11/08 01:58:35;;;;;;;37.13;19.88;;;;;;;17.06;75.26;101277.47;5133100;27;20050;-80
2021/11/08 02:01:04;;;;;;;35.70;20.48;;;;;;;17.16;74.90;101280.97;5115046;27;20058;-79
2021/11/08 02:03:32;;;;;;;34.88;18.00;;;;;;;17.19;74.62;101281.00;5133249;27;20080;-80
2021/11/08 02:06:00;;;;;;;34.08;19.30;;;;;;;17.17;74.60;101278.31;5115140;27;20043;-80
2021/11/08 02:08:28;;;;;;;37.22;20.65;;;;;;;17.16;74.53;101278.31;5115289;27;20039;-80
2021/11/08 02:10:57;;;;;;;36.42;19.23;;;;;;;17.04;74.94;101287.25;5133155;27;20595;-81
2021/11/08 02:13:26;;;;;;;35.28;18.73;;;;;;;17.05;75.23;101289.91;5122383;27;20066;-80
2021/11/08 02:15:54;;;;;;;37.28;21.00;;;;;;;17.06;75.38;101290.81;5132565;27;20043;-80
2021/11/08 02:18:23;;;;;;;41.00;21.88;;;;;;;17.07;75.50;101289.88;5133254;27;20064;-80
2021/11/08 02:20:55;;;;;;;41.28;22.05;;;;;;;17.06;75.71;101285.47;5132959;27;20059;-80
2021/11/08 02:23:25;;;;;;;40.22;21.52;;;;;;;17.08;75.88;101291.66;5114947;27;20038;-80
2021/11/08 02:25:55;;;;;;;33.20;17.98;;;;;;;17.06;75.81;101280.13;5132381;27;20040;-80
2021/11/08 02:28:45;;;;;;;35.90;20.15;;;;;;;17.02;75.99;101273.00;5117646;27;20070;-80
2021/11/08 02:31:17;;;;;;;29.48;16.38;;;;;;;16.98;75.98;101277.47;5115292;27;20440;-79
2021/11/08 02:33:45;;;;;;;36.33;19.27;;;;;;;16.96;75.98;101281.03;5132934;27;20047;-80
2021/11/08 02:36:16;;;;;;;32.03;18.83;;;;;;;16.98;75.91;101277.47;5114808;28;20073;-80
2021/11/08 02:38:47;;;;;;;36.47;20.67;;;;;;;16.94;75.92;101280.13;5114445;28;20503;-80
2021/11/08 02:41:16;;;;;;;35.88;19.42;;;;;;;16.96;76.08;101281.91;5133378;28;20444;-80
2021/11/08 02:43:45;;;;;;;33.30;18.23;;;;;;;16.96;76.07;101273.91;5133231;28;20111;-80
2021/11/08 02:46:15;;;;;;;35.85;19.35;;;;;;;16.96;76.06;101276.59;5132770;28;20478;-80
2021/11/08 02:48:43;;;;;;;34.63;19.63;;;;;;;16.94;76.25;101278.34;5133172;28;20051;-79
2021/11/08 02:51:16;;;;;;;37.00;21.45;;;;;;;16.99;76.21;101284.59;5114825;28;20039;-79
2021/11/08 02:53:48;;;;;;;34.00;19.20;;;;;;;17.06;76.50;101282.81;5114615;28;20048;-80
2021/11/08 02:56:16;;;;;;;34.97;18.20;;;;;;;17.06;76.27;101288.13;5114346;28;20136;-79
2021/11/08 02:58:45;;;;;;;39.80;21.20;;;;;;;17.10;76.39;101289.91;5114819;28;20047;-79
2021/11/08 03:01:17;;;;;;;34.05;18.08;;;;;;;17.14;76.36;101296.97;5132572;28;20395;-80
2021/11/08 03:03:47;;;;;;;36.45;19.17;;;;;;;17.14;76.41;101303.22;5114569;28;20039;-81
2021/11/08 03:06:20;;;;;;;35.05;20.25;;;;;;;17.18;76.55;101303.22;5114859;28;20540;-80
2021/11/08 03:08:51;;;;;;;37.33;18.58;;;;;;;17.19;76.49;101315.69;5132984;28;20505;-80
2021/11/08 03:11:20;;;;;;;32.95;19.77;;;;;;;17.17;76.50;101321.00;5132924;28;20061;-81
2021/11/08 03:13:56;;;;;;;36.38;19.67;;;;;;;17.14;76.62;101318.34;5114684;28;20043;-81
2021/11/08 03:16:28;;;;;;;32.47;18.08;;;;;;;17.12;76.41;101314.81;5132594;28;20039;-79
2021/11/08 03:18:59;;;;;;;31.42;16.38;;;;;;;17.08;76.60;101318.34;5132571;28;20050;-80
2021/11/08 03:21:28;;;;;;;28.38;17.80;;;;;;;16.99;76.59;101318.38;5132648;28;20043;-80
2021/11/08 03:24:00;;;;;;;32.35;19.20;;;;;;;16.98;76.73;101316.59;5132313;28;20051;-80
2021/11/08 03:26:41;;;;;;;28.98;17.38;;;;;;;16.98;76.88;101314.81;5114636;28;20039;-79
2021/11/08 03:29:10;;;;;;;28.10;16.17;;;;;;;17.03;76.70;101304.13;5132912;28;20039;-80
2021/11/08 03:31:39;;;;;;;31.08;16.63;;;;;;;17.03;76.67;101310.38;5114376;28;20523;-81
2021/11/08 03:34:09;;;;;;;34.60;20.33;;;;;;;17.05;76.63;101313.03;5114649;28;20050;-81
2021/11/08 03:36:37;;;;;;;39.33;19.30;;;;;;;17.05;76.55;101308.59;5115074;27;20054;-81
2021/11/08 03:39:07;;;;;;;31.75;16.52;;;;;;;17.08;76.35;101294.34;5101638;27;20039;-81
2021/11/08 03:41:35;;;;;;;36.45;20.30;;;;;;;17.06;76.05;101288.13;5118644;27;20043;-81
2021/11/08 03:44:03;;;;;;;32.28;17.77;;;;;;;16.95;75.79;101300.59;5118368;27;20494;-81
2021/11/08 03:46:32;;;;;;;35.22;20.20;;;;;;;16.84;75.98;101302.41;5136209;27;20055;-81
2021/11/08 03:48:59;;;;;;;36.55;18.38;;;;;;;16.68;76.45;101293.50;5136172;27;20073;-82
2021/11/08 03:51:27;;;;;;;31.55;17.92;;;;;;;16.62;76.58;101293.53;5109932;28;20070;-81
2021/11/08 03:53:55;;;;;;;33.40;18.33;;;;;;;16.63;76.55;101300.63;5115706;28;20043;-81
2021/11/08 03:56:24;;;;;;;37.03;21.50;;;;;;;16.73;76.38;101297.97;5097597;28;20081;-80
2021/11/08 03:58:54;;;;;;;34.28;20.25;;;;;;;16.77;75.97;101289.97;5115443;28;20044;-81
2021/11/08 04:01:21;;;;;;;37.50;20.77;;;;;;;16.70;75.67;101297.97;5115009;28;20243;-81
2021/11/08 04:03:49;;;;;;;39.35;20.27;;;;;;;16.67;75.56;101297.09;5097175;28;20410;-81
2021/11/08 04:06:18;;;;;;;36.58;20.58;;;;;;;16.62;75.63;101298.84;5097008;28;20070;-80
2021/11/08 04:08:45;;;;;;;38.03;20.67;;;;;;;16.56;75.56;101296.16;5115079;28;20418;-80
2021/11/08 04:11:13;;;;;;;40.13;21.85;;;;;;;16.44;75.70;101302.38;5114710;28;20059;-80
2021/11/08 04:13:43;;;;;;;35.15;19.38;;;;;;;16.33;75.95;101304.16;5114777;28;20142;-74
2021/11/08 04:16:13;;;;;;;38.10;21.85;;;;;;;16.33;76.28;101309.50;5115226;28;20093;-80
2021/11/08 04:18:47;;;;;;;37.17;21.23;;;;;;;16.40;76.35;101305.06;5114473;28;20055;-76
2021/11/08 04:21:36;;;;;;;37.95;20.77;;;;;;;16.39;76.03;101312.16;5099537;28;20051;-80
2021/11/08 04:24:05;;;;;;;39.58;22.10;;;;;;;16.39;76.11;101312.16;5114666;28;20050;-80
2021/11/08 04:26:35;;;;;;;35.88;21.45;;;;;;;16.41;76.22;101318.34;5114678;28;20067;-80
2021/11/08 04:29:04;;;;;;;37.22;21.75;;;;;;;16.46;75.95;101313.06;5114856;28;20487;-80
2021/11/08 04:31:34;;;;;;;34.03;20.52;;;;;;;16.38;76.04;101310.38;5114677;28;20383;-80
2021/11/08 04:34:05;;;;;;;39.15;21.85;;;;;;;16.31;76.27;101306.81;5114815;28;20085;-80
2021/11/08 04:39:37;;;;;;;41.00;22.27;;;;;;;16.29;76.80;101313.03;5109712;27;20427;-79
2021/11/08 04:42:10;;;;;;;39.50;22.13;;;;;;;16.31;77.19;101308.59;5095257;27;20044;-80
2021/11/08 04:45:11;;;;;;;39.33;22.80;;;;;;;16.31;77.15;101308.59;5090760;28;20127;-79
2021/11/08 04:50:31;;;;;;;37.30;20.92;;;;;;;16.33;77.05;101312.16;5086362;28;20070;-80
2021/11/08 04:56:12;;;;;;;39.65;22.50;;;;;;;16.31;77.13;101312.16;5103354;28;20038;-80
2021/11/08 05:24:01;;;;;;;33.88;18.13;;;;;;;16.58;78.43;101327.28;5087283;27;20036;-82
2021/11/08 05:31:59;;;;;;;34.65;20.33;;;;;;;16.95;78.62;101332.59;5104561;28;20181;-82
2021/11/08 05:34:27;;;;;;;35.30;19.48;;;;;;;17.16;79.23;101331.69;5101418;27;20041;-82
2021/11/08 05:36:55;;;;;;;37.75;20.15;;;;;;;17.45;80.07;101335.16;5082917;27;20044;-82
2021/11/08 05:39:22;;;;;;;27.08;15.02;;;;;;;17.71;80.50;101321.75;5083242;27;20040;-81
2021/11/08 05:41:50;;;;;;;22.23;12.75;;;;;;;17.85;79.84;101309.22;5077566;28;20412;-81
2021/11/08 05:44:19;;;;;;;26.48;13.45;;;;;;;17.89;78.49;101317.19;5085534;28;20052;-80
2021/11/08 05:46:47;;;;;;;27.33;13.63;;;;;;;17.92;78.22;101302.91;5084873;28;20132;-76
2021/11/08 05:49:15;;;;;;;26.77;14.20;;;;;;;18.03;78.43;101314.44;5072140;28;20040;-79
2021/11/08 05:51:42;;;;;;;25.48;14.07;;;;;;;18.17;78.74;101317.91;5068982;28;20040;-78
2021/11/08 05:54:10;;;;;;;27.48;14.20;;;;;;;18.38;79.13;101318.66;5073439;28;20070;-77
2021/11/08 05:56:50;;;;;;;25.27;13.00;;;;;;;18.40;78.88;101316.84;5072534;28;20048;-77
2021/11/08 05:59:44;;;;;;;25.10;13.27;;;;;;;18.41;78.86;101318.63;5065094;28;20063;-77
2021/11/08 06:49:27;;;;;;;21.73;13.02;;;;;;;19.13;69.48;101391.16;5063892;28;19921;-73
2021/11/08 06:51:56;;;;;;;20.70;11.98;;;;;;;18.97;69.80;101372.56;5071044;28;20045;-73
2021/11/08 06:54:26;;;;;;;25.65;13.23;;;;;;;18.88;69.79;101364.63;5069167;28;20060;-74
2021/11/08 06:56:57;;;;;;;23.08;12.70;;;;;;;18.88;70.29;101366.44;5066648;28;20539;-73
2021/11/08 06:59:26;;;;;;;21.98;11.98;;;;;;;19.15;71.48;101359.94;5076680;28;20040;-74
2021/11/08 07:01:54;;;;;;;18.95;11.48;;;;;;;19.53;72.38;101355.06;5068294;28;20516;-74
2021/11/08 07:04:22;;;;;;;22.48;11.38;;;;;;;20.07;73.25;101349.94;5068116;28;20124;-75
2021/11/08 07:06:52;;;;;;;21.40;11.85;;;;;;;20.67;73.63;101349.03;5067614;28;20076;-77
2021/11/08 07:09:20;;;;;;;21.52;12.07;;;;;;;21.25;73.51;101349.81;5062090;28;20044;-74
2021/11/08 07:11:48;;;;;;;17.85;12.10;;;;;;;21.78;72.97;101354.13;5068256;28;20029;-75
2021/11/08 07:14:16;;;;;;;17.42;10.68;;;;;;;22.22;72.54;101364.81;5081979;28;20055;-74
2021/11/08 07:16:45;;;;;;;23.33;12.02;;;;;;;22.62;71.74;101371.97;5069633;28;20086;-71
2021/11/08 07:19:14;;;;;;;19.35;12.10;;;;;;;22.96;70.51;101372.06;5065673;28;20126;-71
2021/11/08 07:21:42;;;;;;;21.20;11.63;;;;;;;23.19;69.73;101383.09;5054125;28;20037;-72
2021/11/08 07:24:11;;;;;;;16.17;10.02;;;;;;;23.44;68.44;101370.72;5064762;28;20123;-72
2021/11/08 07:26:39;;;;;;;20.13;11.27;;;;;;;23.61;67.56;101369.41;5064524;28;20041;-72
2021/11/08 07:29:08;;;;;;;19.42;11.98;;;;;;;23.76;66.73;101375.22;5056332;28;20665;-72
2021/11/08 07:31:35;;;;;;;20.23;11.43;;;;;;;24.40;65.26;101365.22;5067958;28;20055;-71
2021/11/08 07:34:03;;;;;;;22.15;10.75;;;;;;;24.56;62.96;101362.91;5071541;28;20041;-71
2021/11/08 07:36:31;;;;;;;20.20;10.63;;;;;;;24.55;61.73;101359.31;5075408;28;20041;-71
2021/11/08 07:38:59;;;;;;;24.13;10.85;;;;;;;24.46;61.50;101369.56;5074448;28;20133;-71
2021/11/08 07:41:28;;;;;;;24.15;12.23;;;;;;;24.23;60.81;101378.34;5058594;28;20049;-71
2021/11/08 07:43:56;;;;;;;19.73;10.75;;;;;;;23.94;61.09;101368.44;5059878;28;20044;-69
2021/11/08 07:46:24;;;;;;;22.23;10.30;;;;;;;23.97;61.42;101370.13;5065200;28;20071;-71
2021/11/08 07:48:52;;;;;;;26.95;11.23;;;;;;;23.98;60.99;101366.50;5070831;28;20086;-71
2021/11/08 07:51:20;;;;;;;22.98;10.35;;;;;;;23.96;60.78;101361.16;5064361;28;20534;-70
2021/11/08 07:53:48;;;;;;;22.00;11.25;;;;;;;23.78;60.35;101357.19;5084428;28;20107;-70
2021/11/08 07:56:16;;;;;;;17.70;9.30;;;;;;;23.55;60.26;101357.00;5061861;28;20056;-70
2021/11/08 07:58:48;;;;;;;46.30;12.85;;;;;;;23.40;60.01;101362.78;5055442;28;20217;-71
2021/11/08 08:01:16;;;;;;;25.50;11.75;;;;;;;23.43;60.48;101351.91;5077457;28;20045;-71
2021/11/08 08:03:45;;;;;;;23.55;11.05;;;;;;;23.55;60.91;101351.59;5050200;28;20044;-70
2021/11/08 08:06:13;;;;;;;22.90;11.90;;;;;;;23.65;61.03;101344.13;5055267;28;20465;-70
2021/11/08 08:08:41;;;;;;;23.52;11.68;;;;;;;23.84;61.12;101357.00;5066995;28;20550;-70
2021/11/08 08:11:09;;;;;;;21.92;10.63;;;;;;;23.96;60.84;101352.22;5028926;28;20045;-72
2021/11/08 08:13:38;;;;;;;18.30;11.23;;;;;;;24.09;60.57;101345.50;5033759;28;20449;-71
2021/11/08 08:16:10;;;;;;;19.67;10.32;;;;;;;24.27;60.58;101344.97;5058798;28;20099;-72
2021/11/08 08:18:39;;;;;;;23.75;10.05;;;;;;;24.43;59.85;101337.22;5068946;28;20045;-71
2021/11/08 08:21:08;;;;;;;22.77;10.60;;;;;;;24.44;59.04;101334.50;5060022;28;20093;-71
2021/11/08 08:23:36;;;;;;;17.48;10.07;;;;;;;24.49;59.35;101339.72;5062702;28;20396;-70
2021/11/08 08:26:05;;;;;;;16.90;9.88;;;;;;;24.57;59.04;101341.25;5066849;28;20053;-70
2021/11/08 08:28:33;;;;;;;18.85;9.43;;;;;;;24.58;58.67;101337.63;5059557;28;20056;-71
2021/11/08 08:31:01;;;;;;;18.85;10.60;;;;;;;24.57;58.33;101332.28;5058203;28;20120;-71
2021/11/08 08:33:31;;;;;;;19.27;10.82;;;;;;;24.48;58.37;101333.44;5050137;28;20531;-71
2021/11/08 08:35:59;;;;;;;19.63;10.88;;;;;;;24.52;58.51;101339.66;5067266;28;20404;-72
2021/11/08 08:38:27;;;;;;;16.73;10.23;;;;;;;24.57;58.40;101341.25;5066939;27;20496;-71
2021/11/08 08:40:55;;;;;;;19.33;10.88;;;;;;;24.42;57.93;101336.34;5056734;28;20702;-71
2021/11/08 08:43:28;;;;;;;22.73;11.57;;;;;;;24.24;57.89;101336.94;5057790;28;20091;-72
2021/11/08 08:45:57;;;;;;;18.30;11.67;;;;;;;24.17;58.42;101348.81;5065326;28;20454;-70
2021/11/08 08:48:26;;;;;;;26.27;11.43;;;;;;;24.02;58.13;101343.94;5059320;28;20139;-70
2021/11/08 08:50:55;;;;;;;23.90;12.70;;;;;;;23.82;58.47;101345.41;5075496;28;20047;-71
2021/11/08 08:53:23;;;;;;;20.67;10.88;;;;;;;23.76;58.59;101350.97;5061807;28;20412;-71
2021/11/08 08:55:51;;;;;;;19.92;10.02;;;;;;;23.88;58.64;101352.44;5064752;28;20090;-71
2021/11/08 08:58:18;;;;;;;20.67;10.68;;;;;;;24.06;58.62;101354.56;5065472;28;20098;-71
2021/11/08 09:00:48;;;;;;;18.13;10.40;;;;;;;24.28;58.22;101354.84;5059496;28;20033;-71
2021/11/08 09:03:17;;;;;;;19.15;10.07;;;;;;;24.51;57.91;101349.56;5070193;28;20045;-70
2021/11/08 09:05:46;;;;;;;20.88;10.45;;;;;;;24.73;57.68;101355.16;5057701;28;20047;-71
2021/11/08 09:08:15;;;;;;;20.58;9.95;;;;;;;24.87;57.49;101347.47;5059415;28;20036;-70
2021/11/08 09:10:45;;;;;;;21.77;11.60;;;;;;;24.92;56.97;101348.22;5057268;28;20400;-70
2021/11/08 09:13:13;;;;;;;22.70;12.25;;;;;;;24.88;56.85;101345.63;5067359;28;20045;-73
2021/11/08 09:15:42;;;;;;;21.83;11.27;;;;;;;24.86;56.64;101348.41;5058274;28;20072;-71
2021/11/08 09:18:13;;;;;;;17.77;10.00;;;;;;;24.91;56.74;101350.97;5056555;28;20055;-72
2021/11/08 09:20:43;;;;;;;17.80;10.15;;;;;;;24.95;56.39;101347.22;5065214;28;20053;-72
2021/11/08 09:23:12;;;;;;;23.40;11.60;;;;;;;24.81;56.14;101344.94;5079422;28;20050;-70
2021/11/08 09:25:42;;;;;;;22.40;11.63;;;;;;;24.87;56.39;101339.38;5061036;28;20048;-70
2021/11/08 09:28:10;;;;;;;18.25;10.57;;;;;;;24.79;55.87;101335.16;5056465;28;20076;-70
2021/11/08 09:30:41;;;;;;;22.85;11.18;;;;;;;24.71;55.66;101327.31;5068501;28;20041;-70
2021/11/08 09:33:10;;;;;;;17.13;10.25;;;;;;;24.75;56.00;101320.84;5087032;28;20093;-70
2021/11/08 09:35:43;;;;;;;18.75;10.25;;;;;;;24.86;55.79;101321.38;5058316;28;20347;-70
2021/11/08 09:38:14;;;;;;;16.33;9.65;;;;;;;24.92;56.03;101323.03;5059978;28;20044;-70
2021/11/08 09:40:45;;;;;;;18.20;10.63;;;;;;;24.96;55.95;101313.84;5070779;28;20036;-70
2021/11/08 09:43:15;;;;;;;20.00;10.98;;;;;;;24.83;55.27;101323.28;5089101;28;20736;-70
2021/11/08 09:45:44;;;;;;;21.52;11.63;;;;;;;24.81;55.46;101320.63;5065403;28;20049;-70
2021/11/08 09:48:12;;;;;;;23.77;11.32;;;;;;;24.87;55.60;101322.28;5051919;28;20049;-70
2021/11/08 09:50:43;;;;;;;20.73;10.77;;;;;;;25.05;55.35;101323.47;5062543;28;20041;-70
2021/11/08 09:53:11;;;;;;;22.70;11.05;;;;;;;25.17;55.41;101321.22;5056138;28;20055;-70
2021/11/08 09:55:41;;;;;;;16.35;10.52;;;;;;;25.20;54.97;101326.53;5065964;28;20315;-69
2021/11/08 09:58:11;;;;;;;18.95;10.07;;;;;;;25.27;55.03;101330.75;5087191;28;20041;-70
2021/11/08 10:00:50;;;;;;;21.23;10.95;;;;;;;25.40;55.28;101329.34;5057120;28;20370;-70
2021/11/08 10:03:22;;;;;;;22.40;11.23;;;;;;;25.39;55.27;101318.63;5065537;28;20041;-70
2021/11/08 10:05:52;;;;;;;21.77;12.43;;;;;;;25.35;55.21;101325.06;5067257;28;20047;-70
2021/11/08 10:08:22;;;;;;;21.08;10.38;;;;;;;25.33;55.59;101322.44;5079653;28;20052;-70
2021/11/08 10:10:51;;;;;;;20.10;10.75;;;;;;;25.36;55.33;101322.31;5069956;28;20079;-70
2021/11/08 10:13:24;;;;;;;21.55;11.27;;;;;;;25.23;54.81;101323.69;5061253;28;20047;-70
2021/11/08 10:15:55;;;;;;;22.52;10.80;;;;;;;25.04;55.09;101319.88;5081632;28;20124;-70
2021/11/08 10:18:24;;;;;;;21.73;11.07;;;;;;;24.81;55.28;101309.81;5060724;28;20067;-71
2021/11/08 10:20:55;;;;;;;24.58;11.95;;;;;;;24.80;55.56;101309.91;5058651;28;20041;-70
2021/11/08 10:23:26;;;;;;;15.95;9.90;;;;;;;24.72;56.31;101304.75;5055505;28;20048;-72
2021/11/08 10:25:56;;;;;;;16.95;9.13;;;;;;;24.79;56.02;101305.44;5090186;28;20438;-72
2021/11/08 10:28:28;;;;;;;22.23;11.13;;;;;;;24.70;56.26;101303.03;5073496;28;20542;-70
2021/11/08 10:30:59;;;;;;;19.92;10.35;;;;;;;24.87;55.99;101296.13;5078712;28;20481;-70
2021/11/08 10:33:31;;;;;;;21.13;10.30;;;;;;;24.91;56.20;101299.63;5053649;28;20040;-70
2021/11/08 10:36:05;;;;;;;17.05;9.32;;;;;;;24.88;56.34;101289.78;5085463;28;20053;-70
2021/11/08 10:38:36;;;;;;;15.52;9.98;;;;;;;24.86;56.61;101288.09;5073099;28;20049;-71
2021/11/08 10:41:07;;;;;;;59.13;14.13;;;;;;;24.82;57.03;101291.81;5065688;28;20098;-70
2021/11/08 10:43:39;;;;;;;78.97;11.70;;;;;;;24.90;57.75;101296.06;5080229;28;20405;-70
2021/11/08 10:46:08;;;;;;;20.60;9.75;;;;;;;24.85;57.27;101289.00;5069252;28;20120;-70
2021/11/08 10:48:38;;;;;;;23.40;9.40;;;;;;;24.70;57.70;101284.13;5077647;28;20036;-71
2021/11/08 10:51:08;;;;;;;20.25;9.00;;;;;;;24.68;57.70;101276.06;5073692;28;20068;-70
2021/11/08 10:53:52;;;;;;;22.45;9.02;;;;;;;24.75;58.01;101279.44;5079512;28;20041;-70
2021/11/08 10:56:22;;;;;;;21.58;10.00;;;;;;;24.74;58.22;101277.72;5068151;28;20072;-71
2021/11/08 10:58:53;;;;;;;20.05;9.63;;;;;;;24.66;58.37;101266.28;5056969;28;20404;-71
2021/11/08 11:01:26;;;;;;;20.08;9.15;;;;;;;24.71;58.46;101267.88;5068675;28;20138;-71
2021/11/08 11:03:55;;;;;;;16.05;8.38;;;;;;;24.81;58.16;101268.47;5079415;28;20127;-70
2021/11/08 11:06:34;;;;;;;16.23;9.25;;;;;;;24.95;57.68;101264.34;5051389;28;20102;-71
2021/11/08 11:09:09;;;;;;;17.70;8.00;;;;;;;25.01;57.36;101272.22;5068500;28;20043;-70
2021/11/08 11:11:37;;;;;;;17.95;9.55;;;;;;;24.95;57.15;101277.84;5051256;28;20484;-70
2021/11/08 11:14:07;;;;;;;18.48;8.63;;;;;;;24.84;57.51;101290.81;5052615;28;20041;-70
2021/11/08 11:16:37;;;;;;;18.83;9.80;;;;;;;24.80;57.35;101300.00;5061696;28;20136;-70
2021/11/08 11:19:07;;;;;;;20.10;9.10;;;;;;;24.81;57.92;101295.47;5061047;28;20052;-71
2021/11/08 11:21:36;;;;;;;17.77;7.35;;;;;;;24.90;57.77;101289.75;5075881;28;20043;-70
2021/11/08 11:24:06;;;;;;;17.90;9.23;;;;;;;24.92;58.14;101280.69;5087877;28;20044;-70
2021/11/08 11:26:47;;;;;;;16.33;8.02;;;;;;;24.95;57.90;101282.38;5061857;28;20566;-71
2021/11/08 11:29:27;;;;;;;15.32;8.90;;;;;;;24.81;58.19;101279.25;5062211;28;20400;-71
2021/11/08 11:31:56;;;;;;;17.70;9.30;;;;;;;24.54;58.46;101273.88;5080441;28;20047;-71
2021/11/08 11:34:25;;;;;;;16.95;8.32;;;;;;;24.42;58.64;101271.56;5055728;28;20057;-71
2021/11/08 11:36:52;;;;;;;18.48;9.10;;;;;;;24.33;59.02;101271.00;5071354;28;20041;-71
2021/11/08 11:39:22;;;;;;;15.80;8.70;;;;;;;24.31;59.01;101267.47;5063142;28;20098;-71
2021/11/08 11:41:51;;;;;;;23.55;9.48;;;;;;;24.24;59.05;101277.56;5050791;28;20094;-71
2021/11/08 11:44:23;;;;;;;21.40;10.05;;;;;;;24.16;59.44;101272.38;5055604;28;20498;-71
2021/11/08 11:46:54;;;;;;;15.90;8.65;;;;;;;24.07;59.58;101271.81;5061591;28;20377;-71
2021/11/08 11:49:24;;;;;;;15.68;9.25;;;;;;;23.98;59.48;101258.59;5055541;28;20107;-71
2021/11/08 11:51:54;;;;;;;20.15;9.50;;;;;;;23.90;59.80;101261.53;5049459;28;20064;-70
2021/11/08 11:54:30;;;;;;;16.45;9.50;;;;;;;23.92;60.26;101266.91;5043136;28;20049;-71
2021/11/08 11:56:59;;;;;;;20.38;8.75;;;;;;;23.91;60.15;101265.13;5073354;28;20509;-71
2021/11/08 11:59:30;;;;;;;20.30;8.82;;;;;;;23.90;60.35;101258.84;5063014;28;20041;-70
2021/11/08 12:01:58;;;;;;;20.80;9.73;;;;;;;23.91;60.41;101255.22;5061742;28;20052;-71
2021/11/08 12:04:27;;;;;;;19.92;10.13;;;;;;;23.80;60.58;101262.78;5058371;28;20098;-70
2021/11/08 12:06:58;;;;;;;20.98;9.15;;;;;;;23.72;60.43;101260.31;5087098;27;20037;-70
2021/11/08 12:09:30;;;;;;;17.02;9.30;;;;;;;23.69;60.47;101263.13;5049929;28;20049;-70
2021/11/08 12:11:58;;;;;;;46.22;11.30;;;;;;;23.64;60.46;101256.97;5069711;28;20045;-70
2021/11/08 12:14:31;;;;;;;25.30;10.38;;;;;;;23.58;60.64;101259.84;5070605;28;20053;-71
2021/11/08 12:17:02;;;;;;;27.67;10.20;;;;;;;23.47;60.91;101256.59;5053324;28;20151;-71
2021/11/08 12:19:35;;;;;;;21.20;9.10;;;;;;;23.36;61.25;101250.59;5072660;28;20440;-70
2021/11/08 12:22:14;;;;;;;17.90;9.20;;;;;;;23.38;61.25;101252.31;5069656;28;20054;-70
2021/11/08 12:24:55;;;;;;;19.55;10.52;;;;;;;23.36;61.27;101240.72;5064357;28;20123;-70
2021/11/08 12:27:35;;;;;;;19.80;10.07;;;;;;;23.35;61.45;101244.34;5077463;28;20045;-69
2021/11/08 12:30:11;;;;;;;22.98;10.77;;;;;;;23.33;61.50;101250.69;5068767;28;20043;-72
2021/11/08 12:32:44;;;;;;;27.25;9.90;;;;;;;23.24;61.82;101249.13;5060002;28;20043;-72
2021/11/08 12:35:21;;;;;;;18.00;10.60;;;;;;;23.25;62.23;101244.63;5053598;28;20510;-72
2021/11/08 12:37:50;;;;;;;20.20;10.25;;;;;;;23.28;62.26;101252.63;5046674;28;20040;-72
2021/11/08 12:40:21;;;;;;;22.25;11.15;;;;;;;23.22;62.38;101250.13;5054178;28;20122;-72
2021/11/08 12:42:55;;;;;;;22.80;12.57;;;;;;;23.17;62.34;101250.22;5067539;28;20067;-71
2021/11/08 12:45:29;;;;;;;21.02;10.80;;;;;;;23.06;62.79;101246.97;5061444;28;20799;-71
2021/11/08 12:48:06;;;;;;;21.45;11.43;;;;;;;22.94;63.07;101247.31;5057202;28;20049;-71
2021/11/08 12:50:40;;;;;;;22.42;11.60;;;;;;;22.82;63.63;101247.66;5044584;28;20128;-72
2021/11/08 12:53:08;;;;;;;;;;;;;;;22.73;63.88;101243.38;5056068;28;20407;-71